Time;durP1;ratioP1;P1;durP2;ratioP2;P2;SDS_P1;SDS_P2;PMS_P1;PMS_P2;Temp;Humidity;BMP_temperature;BMP_pressure;BME280_temperature;BME280_humidity;BME280_pressure;Samples;Min_cycle;Max_cycle;Signal;HPM_P1;HPM_P2
2021/01/06 00:01:12;;;;;;;17.95;9.33;;;;;;;4.40;82.29;101075.73;1801881;79;26457;-56
2021/01/06 00:03:40;;;;;;;18.60;10.32;;;;;;;4.41;82.22;101079.28;1801836;79;25594;-56
2021/01/06 00:06:13;;;;;;;12.93;8.23;;;;;;;4.40;82.45;101077.06;1801726;79;28563;-56
2021/01/06 00:08:44;;;;;;;23.67;12.00;;;;;;;4.37;82.29;101080.77;1801699;79;26175;-57
2021/01/06 00:11:14;;;;;;;18.48;11.30;;;;;;;4.37;82.57;101084.77;1801626;79;25441;-56
2021/01/06 00:13:41;;;;;;;20.12;10.72;;;;;;;4.35;82.41;101081.81;1795568;79;25560;-56
2021/01/06 00:16:09;;;;;;;21.60;10.28;;;;;;;4.27;82.21;101083.58;1770152;81;26145;-56
2021/01/06 00:18:37;;;;;;;12.03;8.38;;;;;;;4.28;82.50;101083.12;1770105;81;27531;-57
2021/01/06 00:21:06;;;;;;;19.98;11.83;;;;;;;4.26;82.40;101091.66;1770090;81;26558;-58
2021/01/06 00:23:36;;;;;;;16.00;10.30;;;;;;;4.18;82.24;101090.30;1784735;79;25793;-57
2021/01/06 00:26:04;;;;;;;16.75;10.38;;;;;;;4.07;82.22;101094.91;1727910;82;25636;-57
2021/01/06 00:28:32;;;;;;;17.12;9.93;;;;;;;4.02;82.39;101098.28;1736250;82;25747;-57
2021/01/06 00:31:00;;;;;;;15.28;9.90;;;;;;;3.94;82.53;101099.67;1736230;82;26777;-57
2021/01/06 00:33:36;;;;;;;15.63;9.83;;;;;;;3.93;82.83;101098.80;1736118;82;26512;-57
2021/01/06 00:36:09;;;;;;;15.15;9.38;;;;;;;3.94;82.96;101097.86;1736217;82;25692;-57
2021/01/06 00:38:40;;;;;;;12.73;8.88;;;;;;;4.02;83.11;101102.77;1735673;82;26386;-57
2021/01/06 00:41:08;;;;;;;13.10;9.43;;;;;;;4.10;83.35;101104.52;1730083;82;25728;-57
2021/01/06 00:43:36;;;;;;;13.70;8.33;;;;;;;4.20;83.38;101107.52;1733620;82;27991;-56
2021/01/06 00:46:05;;;;;;;18.85;8.65;;;;;;;4.29;83.66;101112.32;1733481;82;25721;-57
2021/01/06 00:48:33;;;;;;;15.15;8.45;;;;;;;4.38;83.75;101117.12;1724458;82;25715;-57
2021/01/06 00:51:01;;;;;;;12.70;8.08;;;;;;;4.50;83.76;101126.70;1731334;82;26504;-56
2021/01/06 00:53:30;;;;;;;15.88;8.78;;;;;;;4.54;83.32;101123.77;1714920;83;25455;-57
2021/01/06 00:56:00;;;;;;;15.85;8.75;;;;;;;4.61;83.60;101122.08;1714611;83;27553;-57
2021/01/06 00:58:28;;;;;;;12.40;9.25;;;;;;;4.69;83.59;101123.81;1714774;83;25708;-57
2021/01/06 01:00:57;;;;;;;12.75;7.53;;;;;;;4.72;83.34;101124.11;1714874;83;25775;-57
2021/01/06 01:03:27;;;;;;;12.07;8.13;;;;;;;4.74;83.21;101128.88;1714223;83;25758;-57
2021/01/06 01:05:57;;;;;;;9.13;7.20;;;;;;;4.78;82.99;101131.28;1714932;83;25650;-57
2021/01/06 01:08:25;;;;;;;11.15;7.70;;;;;;;4.72;82.27;101135.64;1714866;83;27536;-57
2021/01/06 01:10:53;;;;;;;15.18;8.38;;;;;;;4.64;82.02;101136.56;1714801;83;25930;-56
2021/01/06 01:13:25;;;;;;;11.60;8.23;;;;;;;4.63;82.48;101134.36;1714886;83;25731;-57
2021/01/06 01:15:57;;;;;;;11.33;7.50;;;;;;;4.62;82.49;101134.45;1714904;83;25677;-58
2021/01/06 01:18:28;;;;;;;9.33;7.05;;;;;;;4.64;82.50;101136.08;1714914;83;25682;-56
2021/01/06 01:20:58;;;;;;;11.25;8.28;;;;;;;4.65;82.24;101129.80;1714825;83;27538;-57
2021/01/06 01:23:29;;;;;;;12.15;7.92;;;;;;;4.60;82.21;101132.34;1714784;83;25630;-57
2021/01/06 01:25:58;;;;;;;9.98;7.80;;;;;;;4.61;82.21;101128.28;1714941;83;25721;-57
2021/01/06 01:28:27;;;;;;;12.47;8.95;;;;;;;4.57;81.99;101135.20;1714886;83;25665;-57
2021/01/06 01:30:57;;;;;;;10.05;7.65;;;;;;;4.58;82.61;101132.45;1714966;83;25516;-57
2021/01/06 01:33:26;;;;;;;14.73;7.95;;;;;;;4.62;82.87;101127.30;1714876;83;28092;-57
2021/01/06 01:36:00;;;;;;;11.30;8.35;;;;;;;4.65;83.09;101135.13;1715002;83;25769;-57
2021/01/06 01:38:31;;;;;;;10.03;8.05;;;;;;;4.72;83.24;101137.44;1715086;83;25643;-57
2021/01/06 01:41:11;;;;;;;17.37;8.10;;;;;;;4.76;83.20;101140.32;1730529;81;26504;-56
2021/01/06 01:43:41;;;;;;;12.43;8.73;;;;;;;4.77;83.06;101155.36;1742826;82;25863;-56
2021/01/06 01:46:20;;;;;;;13.20;9.45;;;;;;;4.67;82.19;101151.02;1742744;82;28513;-57
2021/01/06 01:48:51;;;;;;;14.20;8.30;;;;;;;4.59;81.90;101151.94;1742380;82;25704;-57
2021/01/06 01:51:36;;;;;;;12.68;8.85;;;;;;;4.61;82.62;101155.38;1742771;82;25642;-58
2021/01/06 01:54:11;;;;;;;14.30;9.58;;;;;;;4.68;82.82;101155.41;1742661;82;26933;-58
2021/01/06 01:56:50;;;;;;;12.55;8.55;;;;;;;4.76;83.07;101156.31;1742788;82;25732;-55
2021/01/06 01:59:58;;;;;;;15.68;9.45;;;;;;;4.83;83.10;101161.66;1742614;82;28460;-55
2021/01/06 02:02:57;;;;;;;15.05;9.53;;;;;;;4.89;82.97;101159.96;1702567;83;26072;-55
2021/01/06 02:05:42;;;;;;;18.57;10.18;;;;;;;4.89;82.02;101166.63;1729119;81;25495;-56
2021/01/06 02:08:18;;;;;;;13.45;9.60;;;;;;;4.79;81.90;101168.98;1742802;82;25857;-56
2021/01/06 02:11:09;;;;;;;15.75;10.40;;;;;;;4.78;82.22;101171.27;1742748;82;25686;-57
2021/01/06 02:13:51;;;;;;;16.17;10.43;;;;;;;4.73;81.89;101176.02;1717040;82;27542;-57
2021/01/06 02:16:45;;;;;;;19.02;10.55;;;;;;;4.60;81.33;101173.65;1715069;83;25641;-56
2021/01/06 02:19:16;;;;;;;16.40;10.85;;;;;;;4.47;81.33;101178.81;1715101;83;25723;-57
2021/01/06 02:21:45;;;;;;;15.83;10.60;;;;;;;4.29;81.21;101176.24;1714995;83;25701;-57
2021/01/06 02:24:13;;;;;;;22.45;12.98;;;;;;;4.20;81.33;101178.96;1692660;83;25645;-57
2021/01/06 02:26:42;;;;;;;19.62;12.55;;;;;;;4.14;81.57;101185.09;1754712;81;27440;-56
2021/01/06 02:29:10;;;;;;;16.27;11.48;;;;;;;4.07;81.76;101185.89;1735368;82;25746;-55
2021/01/06 02:31:38;;;;;;;19.77;10.98;;;;;;;4.03;81.83;101188.35;1757574;81;25733;-58
2021/01/06 02:34:06;;;;;;;15.18;11.28;;;;;;;3.97;81.71;101184.22;1752924;81;26969;-56
2021/01/06 02:36:34;;;;;;;18.27;11.05;;;;;;;3.91;81.71;101183.20;1743571;81;25483;-57
2021/01/06 02:39:07;;;;;;;13.80;8.80;;;;;;;3.84;81.68;101185.35;1757455;81;28882;-57
2021/01/06 02:41:37;;;;;;;15.50;9.95;;;;;;;3.80;81.63;101186.92;1727656;82;25785;-56
2021/01/06 02:44:08;;;;;;;17.70;9.80;;;;;;;3.72;81.67;101191.31;1727517;82;25712;-57
2021/01/06 02:46:37;;;;;;;15.48;9.50;;;;;;;3.64;81.82;101194.38;1736190;82;25691;-57
2021/01/06 02:49:07;;;;;;;14.10;8.85;;;;;;;3.58;81.88;101198.70;1775878;80;25763;-56
2021/01/06 02:51:39;;;;;;;11.65;8.65;;;;;;;3.52;82.06;101198.55;1745621;82;27463;-56
2021/01/06 02:54:11;;;;;;;12.95;9.25;;;;;;;3.48;82.06;101201.44;1778257;80;25407;-56
2021/01/06 02:56:41;;;;;;;11.30;8.68;;;;;;;3.43;82.22;101209.66;1787259;79;25651;-56
2021/01/06 02:59:13;;;;;;;11.75;8.63;;;;;;;3.41;82.42;101207.54;1794384;79;26660;-56
2021/01/06 03:01:44;;;;;;;14.93;8.48;;;;;;;3.42;82.57;101211.47;1763660;79;25509;-56
2021/01/06 03:04:16;;;;;;;11.68;8.48;;;;;;;3.39;82.50;101212.95;1794507;79;28962;-56
2021/01/06 03:06:57;;;;;;;12.13;8.38;;;;;;;3.37;82.48;101207.33;1794342;79;25921;-56
2021/01/06 03:09:38;;;;;;;16.52;8.10;;;;;;;3.34;82.41;101204.36;1794411;79;26291;-57
2021/01/06 03:12:24;;;;;;;14.35;8.65;;;;;;;3.29;82.45;101212.57;1794459;79;25743;-57
2021/01/06 03:14:52;;;;;;;14.98;8.83;;;;;;;3.26;82.47;101217.19;1794442;79;25750;-57
2021/01/06 03:17:23;;;;;;;12.88;8.03;;;;;;;3.28;82.88;101217.50;1794420;79;27524;-56
2021/01/06 03:20:12;;;;;;;13.78;8.35;;;;;;;3.29;82.93;101208.59;1794198;79;25721;-56
2021/01/06 03:22:42;;;;;;;11.53;7.75;;;;;;;3.29;82.75;101221.88;1804732;79;25789;-56
2021/01/06 03:25:14;;;;;;;10.43;7.83;;;;;;;3.27;82.29;101221.09;1810122;79;26418;-56
2021/01/06 03:27:46;;;;;;;9.55;7.17;;;;;;;3.22;82.19;101219.15;1810400;79;25437;-56
2021/01/06 03:30:23;;;;;;;9.80;6.95;;;;;;;3.24;82.65;101229.21;1810401;78;27511;-56
2021/01/06 03:33:28;;;;;;;17.73;7.17;;;;;;;3.26;82.64;101230.00;1804983;79;25676;-56
2021/01/06 03:36:04;;;;;;;8.28;6.40;;;;;;;3.30;82.84;101234.69;1778469;80;32877;-57
2021/01/06 03:38:52;;;;;;;10.40;6.75;;;;;;;3.35;82.92;101249.09;1778352;80;25709;-57
2021/01/06 03:41:21;;;;;;;10.28;6.50;;;;;;;3.36;82.70;101246.34;1788625;79;25595;-57
2021/01/06 03:44:03;;;;;;;9.28;6.95;;;;;;;3.39;82.56;101241.36;1809982;79;45600;-57
2021/01/06 03:46:47;;;;;;;12.30;7.35;;;;;;;3.39;81.95;101237.37;1810218;79;25690;-57
2021/01/06 03:50:04;;;;;;;12.35;8.23;;;;;;;3.29;81.45;101244.48;1818031;78;25647;-57
2021/01/06 03:53:07;;;;;;;25.23;8.00;;;;;;;3.26;81.70;101250.42;1824673;78;25726;-58
2021/01/06 03:55:48;;;;;;;37.55;8.25;;;;;;;3.23;81.89;101261.20;1824701;78;26531;-56
2021/01/06 03:58:37;;;;;;;63.58;11.85;;;;;;;3.20;81.88;101264.89;1824642;78;27413;-58
2021/01/06 04:01:31;;;;;;;115.08;13.70;;;;;;;3.10;81.25;101272.44;1824522;78;25626;-57
2021/01/06 04:04:13;;;;;;;51.48;11.55;;;;;;;2.98;81.08;101259.29;1824697;78;25648;-56
2021/01/06 04:06:46;;;;;;;78.83;12.13;;;;;;;2.86;81.03;101257.70;1813611;78;26456;-57
2021/01/06 04:09:22;;;;;;;103.62;12.85;;;;;;;2.81;81.26;101259.25;1824531;78;25685;-56
2021/01/06 04:11:58;;;;;;;112.15;12.85;;;;;;;2.76;81.17;101266.11;1823281;78;28055;-56
2021/01/06 04:14:26;;;;;;;63.38;11.45;;;;;;;2.70;81.21;101268.19;1816962;78;25568;-56
2021/01/06 04:16:53;;;;;;;33.85;10.55;;;;;;;2.64;81.51;101265.39;1821469;78;25622;-56
2021/01/06 04:19:21;;;;;;;24.15;10.20;;;;;;;2.65;81.57;101268.41;1821501;78;25958;-56
2021/01/06 04:21:49;;;;;;;13.48;9.28;;;;;;;2.64;81.55;101268.89;1821385;78;25699;-56
2021/01/06 04:24:19;;;;;;;16.75;9.63;;;;;;;2.66;81.77;101272.80;1821414;78;26907;-57
2021/01/06 04:26:47;;;;;;;14.70;9.63;;;;;;;2.69;81.98;101270.00;1821326;78;25633;-56
2021/01/06 04:29:15;;;;;;;13.30;8.80;;;;;;;2.71;82.23;101273.45;1821316;78;25735;-56
2021/01/06 04:31:43;;;;;;;12.78;8.23;;;;;;;2.74;82.51;101271.96;1813141;78;25741;-56
2021/01/06 04:34:10;;;;;;;18.25;8.85;;;;;;;2.77;82.55;101271.83;1789005;80;25774;-56
2021/01/06 04:36:39;;;;;;;14.13;8.68;;;;;;;2.81;82.57;101274.74;1788818;80;27985;-56
2021/01/06 04:39:07;;;;;;;10.78;8.18;;;;;;;2.82;82.26;101276.92;1788943;78;25715;-56
2021/01/06 04:41:46;;;;;;;14.63;8.35;;;;;;;2.86;82.74;101275.85;1815452;78;25684;-56
2021/01/06 04:44:51;;;;;;;11.85;7.60;;;;;;;2.91;82.82;101275.14;1821049;78;25674;-56
2021/01/06 04:47:44;;;;;;;12.93;8.93;;;;;;;2.93;82.59;101274.61;1821436;78;25662;-57
2021/01/06 04:50:46;;;;;;;15.25;8.50;;;;;;;2.89;82.09;101276.16;1808575;78;27588;-57
2021/01/06 04:53:52;;;;;;;16.07;8.35;;;;;;;2.91;82.34;101278.28;1807139;78;26568;-57
2021/01/06 04:57:00;;;;;;;12.88;8.78;;;;;;;2.91;82.55;101286.26;1730893;82;25523;-57
2021/01/06 05:00:01;;;;;;;14.53;8.95;;;;;;;2.97;82.88;101295.25;1761262;81;25819;-57
2021/01/06 05:03:18;;;;;;;17.27;9.73;;;;;;;3.07;83.26;101297.86;1730934;82;25674;-57
2021/01/06 05:06:16;;;;;;;15.30;9.53;;;;;;;3.15;83.09;101297.47;1730269;82;27605;-58
2021/01/06 05:08:57;;;;;;;18.23;10.45;;;;;;;3.13;82.66;101294.89;1730905;82;25758;-57
2021/01/06 05:11:35;;;;;;;15.28;8.78;;;;;;;3.15;82.43;101297.47;1730919;82;25771;-58
2021/01/06 05:14:15;;;;;;;22.05;12.35;;;;;;;3.15;82.70;101300.12;1700209;82;26514;-58
2021/01/06 05:16:47;;;;;;;16.25;9.80;;;;;;;3.19;82.90;101306.16;1730872;82;25711;-58
2021/01/06 05:19:22;;;;;;;22.67;9.20;;;;;;;3.26;83.22;101303.12;1730766;82;28483;-57
2021/01/06 05:21:51;;;;;;;22.10;10.82;;;;;;;3.32;83.27;101299.79;1730874;82;25593;-57
2021/01/06 05:24:37;;;;;;;27.58;11.18;;;;;;;3.35;83.27;101308.47;1730736;82;25502;-58
2021/01/06 05:27:16;;;;;;;45.70;11.25;;;;;;;3.34;82.62;101321.37;1730833;82;26451;-57
2021/01/06 05:29:48;;;;;;;51.58;11.78;;;;;;;3.31;82.91;101336.62;1731501;81;25719;-57
2021/01/06 05:32:31;;;;;;;79.67;12.65;;;;;;;3.23;82.43;101341.82;1761105;81;28938;-57
2021/01/06 05:35:21;;;;;;;62.88;13.05;;;;;;;3.23;82.91;101352.94;1761085;81;25721;-57
2021/01/06 05:37:56;;;;;;;109.52;12.60;;;;;;;3.25;82.99;101351.08;1760992;81;25728;-58
2021/01/06 05:40:28;;;;;;;101.05;13.85;;;;;;;3.17;82.11;101353.25;1754506;81;25689;-57
2021/01/06 05:43:04;;;;;;;213.75;13.60;;;;;;;3.04;81.72;101355.16;1761925;81;25503;-57
2021/01/06 05:45:52;;;;;;;120.22;11.30;;;;;;;2.97;81.96;101359.89;1761060;81;27735;-57
2021/01/06 05:48:34;;;;;;;154.65;12.00;;;;;;;2.93;81.98;101356.13;1760727;81;26120;-57
2021/01/06 05:51:17;;;;;;;128.20;12.53;;;;;;;2.89;82.15;101371.83;1760521;81;25671;-57
2021/01/06 05:53:59;;;;;;;112.57;10.75;;;;;;;2.84;82.36;101384.01;1761153;81;25995;-58
2021/01/06 05:56:42;;;;;;;46.48;9.90;;;;;;;2.78;82.33;101377.17;1761228;81;26075;-57
2021/01/06 05:59:43;;;;;;;23.27;9.98;;;;;;;2.76;82.32;101386.16;1761129;81;28870;-58
2021/01/06 06:02:35;;;;;;;15.68;9.65;;;;;;;2.73;82.35;101394.26;1760777;81;25666;-56
2021/01/06 06:05:30;;;;;;;20.88;9.95;;;;;;;2.74;82.78;101395.50;1761087;81;25506;-57
2021/01/06 06:08:09;;;;;;;19.32;9.60;;;;;;;2.74;82.83;101391.52;1760727;81;25683;-57
2021/01/06 06:11:17;;;;;;;22.95;10.72;;;;;;;2.76;83.01;101402.95;1761253;81;26671;-57
2021/01/06 06:14:02;;;;;;;19.85;10.70;;;;;;;2.82;83.37;101408.45;1761200;81;27442;-56
2021/01/06 06:17:02;;;;;;;28.15;12.55;;;;;;;2.90;83.69;101414.75;1761069;81;25735;-57
2021/01/06 06:20:10;;;;;;;21.62;10.68;;;;;;;2.96;83.79;101417.12;1761171;81;25660;-56
2021/01/06 06:23:14;;;;;;;21.73;10.13;;;;;;;2.98;83.67;101413.45;1761120;81;25691;-57
2021/01/06 06:26:09;;;;;;;18.12;9.50;;;;;;;3.02;83.63;101419.48;1747474;81;25774;-57
2021/01/06 06:28:46;;;;;;;18.15;10.38;;;;;;;3.13;83.89;101421.66;1756300;81;27414;-57
2021/01/06 06:31:31;;;;;;;20.43;10.32;;;;;;;3.21;84.00;101420.83;1730658;82;25655;-57
2021/01/06 06:34:06;;;;;;;18.12;10.45;;;;;;;3.29;83.82;101421.77;1749645;81;25663;-57
2021/01/06 06:36:39;;;;;;;19.12;10.72;;;;;;;3.26;83.08;101420.61;1760445;81;25597;-57
2021/01/06 06:39:30;;;;;;;20.62;10.90;;;;;;;3.31;83.16;101420.39;1759319;81;25616;-57
2021/01/06 06:42:21;;;;;;;16.20;11.22;;;;;;;3.31;82.71;101419.91;1760990;81;28443;-57
2021/01/06 06:45:01;;;;;;;22.70;11.50;;;;;;;3.34;83.01;101417.56;1761001;81;25656;-56
2021/01/06 06:47:52;;;;;;;23.98;13.98;;;;;;;3.29;82.91;101408.48;1760726;81;25663;-57
2021/01/06 06:51:01;;;;;;;25.37;14.18;;;;;;;3.24;82.72;101423.33;1758747;81;25639;-57
2021/01/06 06:53:46;;;;;;;28.80;16.30;;;;;;;3.28;83.21;101422.26;1757410;81;25718;-57
2021/01/06 06:56:24;;;;;;;25.43;13.08;;;;;;;3.37;83.12;101424.92;1742062;81;27950;-58
2021/01/06 06:59:11;;;;;;;23.70;11.90;;;;;;;3.39;82.95;101423.06;1831350;78;25512;-58
2021/01/06 07:01:44;;;;;;;28.50;11.85;;;;;;;3.44;83.23;101429.05;1832259;78;25593;-59
2021/01/06 07:04:27;;;;;;;19.65;12.28;;;;;;;3.49;82.58;101423.95;1742497;81;26387;-58
2021/01/06 07:06:59;;;;;;;34.45;14.98;;;;;;;3.40;82.33;101426.13;1741760;81;25657;-57
2021/01/06 07:09:37;;;;;;;32.28;14.33;;;;;;;3.35;82.52;101428.16;1750931;81;28426;-58
2021/01/06 07:12:10;;;;;;;50.45;15.23;;;;;;;3.33;82.09;101433.13;1750804;81;25757;-57
2021/01/06 07:14:57;;;;;;;66.12;16.02;;;;;;;3.32;82.40;101432.28;1751258;81;25771;-58
2021/01/06 07:17:36;;;;;;;65.67;14.45;;;;;;;3.32;82.47;101436.75;1750884;81;26511;-57
2021/01/06 07:20:09;;;;;;;43.17;11.95;;;;;;;3.29;81.97;101434.63;1750913;81;25664;-57
2021/01/06 07:22:47;;;;;;;60.30;12.98;;;;;;;3.22;81.38;101429.20;1771795;80;27540;-59
2021/01/06 07:25:24;;;;;;;26.77;14.45;;;;;;;3.16;81.61;101436.12;1753337;81;26072;-56
2021/01/06 07:27:56;;;;;;;27.17;14.38;;;;;;;3.05;81.26;101428.66;1806704;78;25692;-56
2021/01/06 07:30:44;;;;;;;27.73;15.90;;;;;;;2.98;81.51;101425.41;1770129;80;25991;-57
2021/01/06 07:33:41;;;;;;;27.05;14.93;;;;;;;2.98;81.83;101431.20;1769905;80;26042;-56
2021/01/06 07:36:19;;;;;;;30.25;16.55;;;;;;;2.97;82.04;101433.47;1770162;81;27464;-57
2021/01/06 07:38:49;;;;;;;18.82;12.33;;;;;;;3.05;82.70;101436.63;1769472;81;26204;-56
2021/01/06 07:41:20;;;;;;;20.72;12.47;;;;;;;3.12;82.42;101437.22;1757214;79;25695;-56
2021/01/06 07:44:02;;;;;;;21.17;12.60;;;;;;;3.12;82.46;101443.86;1809914;79;25629;-56
2021/01/06 07:47:16;;;;;;;17.12;11.50;;;;;;;3.07;82.04;101440.53;1810156;79;26348;-56
2021/01/06 07:50:07;;;;;;;17.42;11.48;;;;;;;3.16;82.89;101444.58;1813722;78;26804;-57
2021/01/06 07:53:07;;;;;;;19.07;11.90;;;;;;;3.19;82.34;101442.63;1824217;78;25799;-57
2021/01/06 07:55:55;;;;;;;24.00;11.93;;;;;;;3.24;82.89;101454.39;1822293;78;25499;-56
2021/01/06 07:58:42;;;;;;;21.60;11.93;;;;;;;3.35;83.29;101445.44;1824681;78;26236;-56
2021/01/06 08:01:35;;;;;;;20.50;11.75;;;;;;;3.48;83.16;101448.83;1795319;78;26374;-56
2021/01/06 08:04:29;;;;;;;23.07;13.95;;;;;;;3.57;82.94;101453.25;1824584;78;27531;-56
2021/01/06 08:07:06;;;;;;;24.82;14.47;;;;;;;3.63;82.76;101461.38;1824647;78;26069;-57
2021/01/06 08:09:37;;;;;;;25.90;14.50;;;;;;;3.69;82.95;101463.77;1824391;78;25445;-56
2021/01/06 08:12:23;;;;;;;20.40;12.15;;;;;;;3.81;82.74;101462.78;1824575;78;25745;-58
2021/01/06 08:15:09;;;;;;;22.30;13.40;;;;;;;3.84;82.54;101463.48;1801279;78;26155;-56
2021/01/06 08:18:07;;;;;;;30.75;14.53;;;;;;;3.85;82.21;101473.20;1824598;78;28199;-57
2021/01/06 08:20:52;;;;;;;40.40;16.23;;;;;;;3.89;82.07;101476.09;1757311;81;25552;-56
2021/01/06 08:23:27;;;;;;;43.15;14.98;;;;;;;3.98;82.12;101476.12;1789579;78;25673;-56
2021/01/06 08:26:18;;;;;;;37.93;14.58;;;;;;;4.05;82.26;101476.65;1818149;78;26160;-57
2021/01/06 08:28:46;;;;;;;57.30;15.98;;;;;;;4.06;81.92;101474.38;1789126;80;25661;-57
2021/01/06 08:31:21;;;;;;;32.25;12.85;;;;;;;4.17;82.12;101467.21;1789173;78;28468;-57
2021/01/06 08:34:01;;;;;;;59.00;13.25;;;;;;;4.22;82.10;101465.16;1789166;80;26321;-57
2021/01/06 08:36:36;;;;;;;38.83;11.90;;;;;;;4.22;81.45;101476.66;1789284;80;25651;-57
2021/01/06 08:39:21;;;;;;;47.08;11.95;;;;;;;4.12;80.38;101479.88;1758344;80;25720;-57
2021/01/06 08:41:50;;;;;;;58.70;13.83;;;;;;;3.99;80.42;101482.29;1800657;78;25684;-57
2021/01/06 08:44:43;;;;;;;56.50;13.13;;;;;;;3.91;80.48;101481.33;1821626;78;27517;-57
2021/01/06 08:47:16;;;;;;;45.10;13.00;;;;;;;3.89;80.54;101488.55;1821451;78;26087;-57
2021/01/06 08:49:45;;;;;;;49.18;13.08;;;;;;;3.80;80.71;101478.35;1816374;78;25733;-57
2021/01/06 08:52:25;;;;;;;24.27;12.65;;;;;;;3.78;80.77;101473.08;1801939;79;26590;-57
2021/01/06 08:55:04;;;;;;;23.02;11.35;;;;;;;3.70;80.76;101469.48;1801864;79;26261;-57
2021/01/06 08:57:36;;;;;;;19.52;8.53;;;;;;;3.72;80.97;101478.71;1766047;80;27529;-57
2021/01/06 09:00:28;;;;;;;10.40;7.25;;;;;;;3.81;81.22;101470.28;1765884;81;26339;-57
2021/01/06 09:03:28;;;;;;;16.60;7.72;;;;;;;3.88;81.65;101470.37;1759771;81;25466;-57
2021/01/06 09:06:11;;;;;;;9.30;7.35;;;;;;;3.94;81.49;101469.69;1722843;83;26942;-56
2021/01/06 09:09:02;;;;;;;11.45;8.18;;;;;;;4.04;81.64;101464.27;1770078;80;26570;-56
2021/01/06 09:11:54;;;;;;;13.72;7.85;;;;;;;4.05;81.46;101461.55;1769882;81;28099;-56
2021/01/06 09:14:38;;;;;;;15.45;9.58;;;;;;;4.11;81.50;101457.72;1769900;81;25468;-57
2021/01/06 09:17:17;;;;;;;15.70;9.40;;;;;;;4.22;81.58;101449.18;1770081;81;25488;-56
2021/01/06 09:19:53;;;;;;;18.77;10.53;;;;;;;4.28;80.79;101435.54;1770077;81;25806;-56
2021/01/06 09:22:21;;;;;;;19.37;10.55;;;;;;;4.33;81.53;101440.63;1769850;81;26437;-57
2021/01/06 09:24:53;;;;;;;17.10;10.45;;;;;;;4.48;81.59;101442.97;1776019;80;28412;-57
2021/01/06 09:27:26;;;;;;;13.30;9.53;;;;;;;4.60;82.00;101441.01;1788398;80;26119;-57
2021/01/06 09:29:56;;;;;;;15.63;10.00;;;;;;;4.73;81.89;101435.89;1788843;79;25696;-57
2021/01/06 09:32:31;;;;;;;16.87;10.13;;;;;;;4.76;80.52;101426.86;1788624;79;26574;-56
2021/01/06 09:35:05;;;;;;;24.80;10.75;;;;;;;4.68;79.93;101435.25;1788659;79;25699;-57
2021/01/06 09:37:37;;;;;;;13.62;9.10;;;;;;;4.74;81.24;101436.73;1785682;80;27641;-57
2021/01/06 09:40:16;;;;;;;13.03;8.65;;;;;;;4.90;81.56;101440.77;1697171;84;25753;-57
2021/01/06 09:42:45;;;;;;;14.95;9.03;;;;;;;5.01;81.53;101443.24;1696592;84;25734;-57
2021/01/06 09:45:24;;;;;;;16.15;8.10;;;;;;;5.06;80.85;101432.81;1788536;80;26486;-56
2021/01/06 09:48:02;;;;;;;16.70;9.58;;;;;;;4.98;80.44;101423.89;1788485;80;25607;-56
2021/01/06 09:50:47;;;;;;;14.95;7.85;;;;;;;4.95;80.26;101420.05;1720559;82;27529;-58
2021/01/06 09:53:21;;;;;;;15.90;8.35;;;;;;;4.98;80.52;101434.55;1750675;81;26633;-56
2021/01/06 09:55:52;;;;;;;14.60;8.68;;;;;;;5.00;80.89;101435.34;1740163;82;25736;-56
2021/01/06 09:58:31;;;;;;;17.45;9.45;;;;;;;5.06;81.08;101426.14;1740189;82;25766;-56
2021/01/06 10:01:24;;;;;;;16.73;10.03;;;;;;;5.12;80.73;101433.80;1719349;81;25788;-56
2021/01/06 10:03:55;;;;;;;14.45;8.53;;;;;;;5.14;81.12;101434.09;1815411;78;27979;-57
2021/01/06 10:06:44;;;;;;;15.55;9.88;;;;;;;5.25;81.22;101427.31;1735371;81;26155;-56
2021/01/06 10:09:44;;;;;;;15.90;10.48;;;;;;;5.23;79.82;101424.73;1757299;81;25703;-56
2021/01/06 10:12:40;;;;;;;17.23;10.30;;;;;;;5.20;80.36;101420.89;1757483;81;25978;-57
2021/01/06 10:15:33;;;;;;;26.37;10.63;;;;;;;5.16;79.98;101408.66;1735475;82;25514;-56
2021/01/06 10:18:18;;;;;;;18.07;10.32;;;;;;;5.08;79.90;101395.77;1713553;81;27628;-57
2021/01/06 10:21:00;;;;;;;20.70;9.58;;;;;;;5.12;80.36;101393.30;1754621;81;25712;-57
2021/01/06 10:23:57;;;;;;;23.30;12.30;;;;;;;5.23;80.76;101402.52;1735623;81;25676;-56
2021/01/06 10:26:43;;;;;;;22.22;12.85;;;;;;;5.31;80.57;101402.95;1715228;82;26507;-57
2021/01/06 10:29:22;;;;;;;35.20;10.80;;;;;;;5.42;80.74;101396.53;1757595;81;26156;-56
2021/01/06 10:32:16;;;;;;;17.52;10.13;;;;;;;5.45;80.45;101392.83;1718193;81;28482;-56
2021/01/06 10:34:51;;;;;;;28.30;11.05;;;;;;;5.50;80.72;101392.11;1730555;82;26275;-56
2021/01/06 10:37:30;;;;;;;34.80;11.75;;;;;;;5.45;80.16;101388.82;1725569;83;25736;-57
2021/01/06 10:40:14;;;;;;;17.75;12.03;;;;;;;5.31;79.65;101382.48;1731316;82;25758;-57
2021/01/06 10:42:46;;;;;;;18.95;11.00;;;;;;;5.15;79.61;101382.97;1793039;79;26200;-57
2021/01/06 10:45:31;;;;;;;16.17;9.40;;;;;;;5.06;80.15;101382.14;1802418;78;27939;-57
2021/01/06 10:47:59;;;;;;;18.02;9.55;;;;;;;5.02;79.92;101378.76;1832027;78;25673;-56
2021/01/06 10:50:32;;;;;;;15.80;9.40;;;;;;;4.98;80.64;101395.41;1754199;79;25682;-57
2021/01/06 10:53:21;;;;;;;15.05;9.63;;;;;;;5.01;80.90;101375.24;1795745;79;25744;-56
2021/01/06 10:56:12;;;;;;;16.02;9.85;;;;;;;5.10;81.19;101373.88;1762287;81;25743;-57
2021/01/06 10:59:00;;;;;;;17.95;10.65;;;;;;;5.16;81.51;101382.87;1796712;79;27527;-56
2021/01/06 11:01:50;;;;;;;18.87;10.72;;;;;;;5.22;81.42;101385.67;1761586;81;25532;-56
2021/01/06 11:04:35;;;;;;;21.80;10.53;;;;;;;5.31;81.54;101383.81;1753826;79;25716;-56
2021/01/06 11:07:24;;;;;;;16.70;10.35;;;;;;;5.40;81.63;101378.41;1741127;82;25798;-56
2021/01/06 11:10:17;;;;;;;17.32;10.70;;;;;;;5.53;81.12;101381.72;1718586;83;25718;-57
2021/01/06 11:12:56;;;;;;;17.52;10.35;;;;;;;5.55;81.24;101377.16;1793594;79;28176;-57
2021/01/06 11:15:47;;;;;;;21.35;10.72;;;;;;;5.69;81.74;101374.54;1796554;79;25646;-57
2021/01/06 11:18:27;;;;;;;15.40;10.00;;;;;;;5.91;81.58;101368.80;1833080;78;25580;-57
2021/01/06 11:21:19;;;;;;;16.40;9.33;;;;;;;5.99;81.29;101369.72;1805758;79;25645;-58
2021/01/06 11:23:56;;;;;;;14.95;9.90;;;;;;;6.01;80.72;101369.13;1773597;80;26743;-57
2021/01/06 11:26:46;;;;;;;16.00;8.93;;;;;;;6.10;80.95;101363.23;1773743;80;25579;-57
2021/01/06 11:29:25;;;;;;;15.00;9.43;;;;;;;6.30;79.60;101352.30;1773667;80;25707;-56
2021/01/06 11:32:04;;;;;;;12.80;8.90;;;;;;;6.21;78.95;101347.91;1773732;80;25862;-57
2021/01/06 11:34:37;;;;;;;11.80;9.03;;;;;;;6.31;79.85;101344.67;1770599;80;26083;-57
2021/01/06 11:37:29;;;;;;;12.93;8.80;;;;;;;6.50;79.77;101340.37;1804247;78;27542;-58
2021/01/06 11:39:59;;;;;;;13.20;9.33;;;;;;;6.65;79.74;101342.56;1807838;79;26285;-56
2021/01/06 11:43:03;;;;;;;21.50;11.97;;;;;;;6.76;79.52;101337.41;1776958;79;25631;-56
2021/01/06 11:45:39;;;;;;;14.80;9.63;;;;;;;6.90;78.62;101328.50;1776501;80;26139;-57
2021/01/06 11:48:27;;;;;;;12.43;9.25;;;;;;;7.07;79.22;101330.06;1775713;80;25755;-57
2021/01/06 11:51:18;;;;;;;13.53;9.25;;;;;;;7.52;77.45;101331.16;1776070;80;27231;-56
2021/01/06 11:54:08;;;;;;;20.97;15.03;;;;;;;7.76;77.68;101321.09;1776554;80;25648;-57
2021/01/06 11:56:41;;;;;;;23.35;16.23;;;;;;;8.01;77.65;101310.02;1776473;80;25751;-57
2021/01/06 11:59:28;;;;;;;26.53;14.10;;;;;;;8.33;76.40;101312.28;1776343;80;26189;-57
2021/01/06 12:02:27;;;;;;;14.73;10.05;;;;;;;8.45;76.32;101316.30;1776500;80;25589;-55
2021/01/06 12:05:20;;;;;;;17.35;11.65;;;;;;;8.43;74.62;101314.66;1776376;80;27515;-56
2021/01/06 12:07:59;;;;;;;14.33;9.18;;;;;;;8.42;74.17;101308.95;1776107;80;25646;-57
2021/01/06 12:11:06;;;;;;;14.60;9.20;;;;;;;8.14;73.67;101314.91;1772795;80;25730;-57
2021/01/06 12:14:06;;;;;;;12.80;7.65;;;;;;;8.03;75.10;101311.63;1776296;80;25609;-57
2021/01/06 12:17:04;;;;;;;16.73;10.70;;;;;;;7.88;74.25;101312.23;1775310;79;26026;-56
2021/01/06 12:20:10;;;;;;;12.93;8.80;;;;;;;7.80;74.84;101307.84;1765766;81;28435;-57
2021/01/06 12:22:38;;;;;;;21.37;10.90;;;;;;;7.89;74.64;101308.55;1763341;81;26666;-57